Time;durP1;ratioP1;P1;durP2;ratioP2;P2;SDS_P1;SDS_P2;PMS_P1;PMS_P2;Temp;Humidity;BMP_temperature;BMP_pressure;BME280_temperature;BME280_humidity;BME280_pressure;Samples;Min_cycle;Max_cycle;Signal;HPM_P1;HPM_P2
2021/12/01 00:01:30;;;;;;;0.40;0.40;;;;;;;-145.69;100.00;72144.69;5113421;28;20284;-75
2021/12/01 00:04:02;;;;;;;0.40;0.40;;;;;;;-145.69;100.00;72140.69;5113224;28;20201;-76
2021/12/01 00:06:31;;;;;;;0.30;0.30;;;;;;;-145.69;100.00;72134.72;5112277;28;20902;-76
2021/12/01 00:09:00;;;;;;;0.50;0.50;;;;;;;-145.69;100.00;72134.72;5113046;28;20751;-76
2021/12/01 00:11:29;;;;;;;0.60;0.60;;;;;;;-145.69;100.00;72138.72;5113191;28;20556;-76
2021/12/01 00:13:59;;;;;;;2.50;1.47;;;;;;;-145.69;100.00;72138.72;5113285;28;20204;-76
2021/12/01 00:16:30;;;;;;;0.57;0.57;;;;;;;-145.69;100.00;72126.78;5113153;28;20316;-76
2021/12/01 00:18:56;;;;;;;0.70;0.50;;;;;;;-145.69;100.00;72130.75;5112996;28;20198;-76
2021/12/01 00:21:28;;;;;;;2.33;0.40;;;;;;;-145.69;100.00;72130.75;5112955;28;20278;-76
2021/12/01 00:24:01;;;;;;;0.30;0.30;;;;;;;-145.69;100.00;72118.81;5113252;28;20201;-76
2021/12/01 00:26:27;;;;;;;0.37;0.37;;;;;;;-145.69;100.00;72110.84;5113367;28;20205;-76
2021/12/01 00:28:54;;;;;;;0.40;0.40;;;;;;;-145.69;100.00;72114.81;5113271;28;20201;-76
2021/12/01 00:31:21;;;;;;;0.50;0.50;;;;;;;-145.69;100.00;72106.88;5112989;28;20198;-76
2021/12/01 00:34:13;;;;;;;0.60;0.60;;;;;;;-145.69;100.00;72104.88;5112772;28;20194;-76
2021/12/01 00:36:57;;;;;;;0.60;0.60;;;;;;;-145.69;100.00;72108.84;5112864;28;20225;-76
2021/12/01 00:39:23;;;;;;;0.40;0.40;;;;;;;-145.69;100.00;72110.84;5099081;28;20251;-76
2021/12/01 00:41:56;;;;;;;0.40;0.40;;;;;;;-145.69;100.00;72116.81;5112986;28;20206;-76
2021/12/01 00:44:23;;;;;;;0.80;0.70;;;;;;;-145.69;100.00;72126.78;5112863;28;20262;-76
2021/12/01 00:46:56;;;;;;;0.60;0.60;;;;;;;-145.69;100.00;72124.78;5112943;28;20293;-76
2021/12/01 00:49:23;;;;;;;0.70;0.70;;;;;;;-145.69;100.00;72118.81;5112929;28;20198;-76
2021/12/01 00:51:50;;;;;;;0.60;0.60;;;;;;;-145.69;100.00;72114.81;5114922;28;20204;-76
2021/12/01 00:54:17;;;;;;;0.50;0.50;;;;;;;-145.69;100.00;72114.81;5116615;28;20212;-76
2021/12/01 00:56:54;;;;;;;0.53;0.53;;;;;;;-145.69;100.00;72112.84;5116360;27;20225;-76
2021/12/01 00:59:24;;;;;;;0.50;0.50;;;;;;;-145.69;100.00;72106.88;5116510;28;20200;-76
2021/12/01 01:01:52;;;;;;;0.90;0.67;;;;;;;-145.69;100.00;72098.91;5116107;28;20559;-76
2021/12/01 01:04:23;;;;;;;0.50;0.50;;;;;;;-145.69;100.00;72102.88;5115874;28;20254;-76
2021/12/01 01:06:53;;;;;;;0.50;0.50;;;;;;;-145.69;100.00;72096.91;5118601;27;20205;-76
2021/12/01 01:09:26;;;;;;;0.50;0.50;;;;;;;-145.69;100.00;72079.00;5115997;28;20205;-76
2021/12/01 01:17:37;;;;;;;0.60;0.60;;;;;;;-145.69;100.00;72073.03;5118340;27;20225;-76
2021/12/01 01:20:08;;;;;;;0.60;0.60;;;;;;;-145.69;100.00;72071.03;5136311;27;20701;-76
2021/12/01 01:22:36;;;;;;;0.60;0.43;;;;;;;-145.69;100.00;72073.03;5135873;27;20201;-76
2021/12/01 01:25:03;;;;;;;0.50;0.40;;;;;;;-145.69;100.00;72067.06;5136641;27;20197;-76
2021/12/01 01:27:30;;;;;;;1.00;0.60;;;;;;;-145.69;100.00;72059.09;5136423;27;20205;-76
2021/12/01 01:29:59;;;;;;;1.13;0.63;;;;;;;-145.69;100.00;72065.06;5136396;27;20616;-75
2021/12/01 01:32:29;;;;;;;0.37;0.33;;;;;;;-145.69;100.00;72065.06;5136499;27;20204;-75
2021/12/01 01:34:59;;;;;;;0.40;0.40;;;;;;;-145.69;100.00;72069.06;5136299;27;20201;-76
2021/12/01 01:37:30;;;;;;;0.40;0.40;;;;;;;-145.69;100.00;72061.09;5135987;27;20285;-76
2021/12/01 01:40:00;;;;;;;0.50;0.50;;;;;;;-145.69;100.00;72059.09;5136147;27;20282;-76
2021/12/01 01:42:26;;;;;;;0.40;0.40;;;;;;;-145.69;100.00;72051.16;5135945;27;20201;-76
2021/12/01 01:44:54;;;;;;;0.50;0.50;;;;;;;-145.69;100.00;72043.19;5136263;27;20205;-76
2021/12/01 01:47:21;;;;;;;0.50;0.50;;;;;;;-145.69;100.00;72043.19;5135785;27;20659;-76
2021/12/01 01:49:55;;;;;;;0.50;0.50;;;;;;;-145.69;100.00;72043.19;5135977;27;20295;-76
2021/12/01 01:52:26;;;;;;;0.60;0.60;;;;;;;-145.69;100.00;72025.28;5136067;27;20253;-76
2021/12/01 01:54:54;;;;;;;0.40;0.40;;;;;;;-145.69;100.00;72039.19;5135917;27;20204;-76
2021/12/01 01:57:21;;;;;;;0.30;0.30;;;;;;;-145.69;100.00;72041.19;5135697;27;20298;-76
2021/12/01 01:59:48;;;;;;;0.60;0.60;;;;;;;-145.69;100.00;72041.19;5135666;27;20197;-76
2021/12/01 02:02:15;;;;;;;0.70;0.60;;;;;;;-145.69;100.00;72039.19;5135553;27;20208;-76
2021/12/01 02:04:41;;;;;;;0.87;0.53;;;;;;;-145.69;100.00;72031.25;5135719;27;20593;-76
2021/12/01 02:07:09;;;;;;;0.47;0.47;;;;;;;-145.69;100.00;72011.34;5135556;27;20204;-76
2021/12/01 02:09:50;;;;;;;0.40;0.40;;;;;;;-145.69;100.00;72003.38;5135350;27;20691;-76
2021/12/01 02:12:26;;;;;;;0.50;0.50;;;;;;;-145.69;100.00;72001.38;5135535;27;20196;-76
2021/12/01 02:14:52;;;;;;;0.60;0.60;;;;;;;-145.69;100.00;71989.44;5135613;27;20196;-76
2021/12/01 02:17:21;;;;;;;0.50;0.50;;;;;;;-145.69;100.00;71997.41;5135172;27;20232;-76
2021/12/01 02:19:52;;;;;;;0.40;0.40;;;;;;;-145.69;100.00;71981.50;5135237;27;20224;-76
2021/12/01 02:22:20;;;;;;;1.43;0.70;;;;;;;-145.69;100.00;71987.47;5135138;27;20834;-76
2021/12/01 02:24:49;;;;;;;0.60;0.60;;;;;;;-145.69;100.00;71989.44;5135405;27;20201;-76
2021/12/01 02:27:18;;;;;;;0.50;0.50;;;;;;;-145.69;100.00;71987.47;5135294;27;20211;-76
2021/12/01 02:29:51;;;;;;;0.60;0.60;;;;;;;-145.69;100.00;71979.50;5134435;27;20208;-76
2021/12/01 02:32:23;;;;;;;0.60;0.60;;;;;;;-145.69;100.00;71971.53;5135065;27;20196;-76
2021/12/01 02:34:49;;;;;;;1.23;0.80;;;;;;;-145.69;100.00;71965.56;5134851;27;20204;-76
2021/12/01 02:37:24;;;;;;;0.50;0.43;;;;;;;-145.69;100.00;71961.59;5134936;27;20228;-75
2021/12/01 02:39:50;;;;;;;0.60;0.60;;;;;;;-145.69;100.00;71963.56;5135057;27;20543;-76
2021/12/01 02:42:21;;;;;;;0.70;0.50;;;;;;;-145.69;100.00;71955.63;5134821;27;20270;-76
2021/12/01 02:44:50;;;;;;;0.50;0.50;;;;;;;-145.69;100.00;71939.69;5134699;27;20694;-76
2021/12/01 02:47:16;;;;;;;1.03;0.70;;;;;;;-145.69;100.00;71943.69;5134688;27;20234;-76
2021/12/01 02:49:43;;;;;;;0.70;0.63;;;;;;;-145.69;100.00;71927.75;5134977;27;20208;-76
2021/12/01 02:52:10;;;;;;;1.40;0.60;;;;;;;-145.69;100.00;71935.72;5134755;27;20239;-76
2021/12/01 02:54:40;;;;;;;0.70;0.70;;;;;;;-145.69;100.00;71915.81;5134808;27;20197;-76
2021/12/01 02:57:08;;;;;;;0.57;0.50;;;;;;;-145.69;100.00;71923.78;5130818;27;20587;-75
2021/12/01 02:59:35;;;;;;;0.50;0.50;;;;;;;-145.69;100.00;71929.75;5125331;27;20738;-75
2021/12/01 03:02:04;;;;;;;0.60;0.60;;;;;;;-145.69;100.00;71905.88;5131657;27;20275;-76
2021/12/01 03:04:31;;;;;;;0.60;0.60;;;;;;;-145.69;100.00;71897.91;5114016;28;20197;-76
2021/12/01 03:06:58;;;;;;;1.60;0.70;;;;;;;-145.69;100.00;71883.97;5113909;28;20201;-76
2021/12/01 03:09:30;;;;;;;2.30;0.50;;;;;;;-145.69;100.00;71889.94;5113802;28;20201;-76
2021/12/01 03:11:58;;;;;;;0.50;0.50;;;;;;;-145.69;100.00;71891.94;5113833;28;20209;-75
2021/12/01 03:14:28;;;;;;;1.30;0.80;;;;;;;-145.69;100.00;71876.00;5113015;28;20595;-76
2021/12/01 03:16:56;;;;;;;0.50;0.50;;;;;;;-145.69;100.00;71872.03;5113804;28;20217;-76
2021/12/01 03:19:23;;;;;;;0.87;0.60;;;;;;;-145.69;100.00;71862.06;5113666;28;20251;-77
2021/12/01 03:21:55;;;;;;;4.07;0.67;;;;;;;-145.69;100.00;71854.13;5113381;28;20205;-76
2021/12/01 03:24:22;;;;;;;0.60;0.60;;;;;;;-145.69;100.00;71840.19;5113540;28;20201;-76
2021/12/01 03:26:48;;;;;;;0.50;0.50;;;;;;;-145.69;100.00;71846.16;5113504;28;20208;-77
2021/12/01 03:29:16;;;;;;;0.57;0.57;;;;;;;-145.69;100.00;71820.28;5113608;28;20205;-76
2021/12/01 03:31:44;;;;;;;0.50;0.50;;;;;;;-145.69;100.00;71820.28;5113600;28;20197;-76
2021/12/01 03:34:13;;;;;;;0.67;0.67;;;;;;;-145.69;100.00;71812.31;5113604;28;20250;-75
2021/12/01 03:36:46;;;;;;;0.97;0.60;;;;;;;-145.69;100.00;71812.31;5113487;28;20237;-76
2021/12/01 03:39:13;;;;;;;0.60;0.60;;;;;;;-145.69;100.00;71814.31;5113384;28;20209;-76
2021/12/01 03:41:48;;;;;;;0.53;0.50;;;;;;;-145.69;100.00;71812.31;5113752;28;20205;-76
2021/12/01 03:44:16;;;;;;;0.50;0.50;;;;;;;-145.69;100.00;71792.44;5113507;28;20200;-76
2021/12/01 03:46:43;;;;;;;0.50;0.50;;;;;;;-145.69;100.00;71798.41;5113459;28;20258;-76
2021/12/01 03:49:11;;;;;;;0.50;0.50;;;;;;;-145.69;100.00;71796.41;5113326;28;20732;-77
2021/12/01 03:51:37;;;;;;;0.50;0.50;;;;;;;-145.69;100.00;71788.44;5113354;28;20262;-76
2021/12/01 03:54:10;;;;;;;1.17;0.57;;;;;;;-145.69;100.00;71792.44;5113335;28;20648;-77
2021/12/01 03:56:37;;;;;;;0.40;0.40;;;;;;;-145.69;100.00;71790.44;5113450;28;20193;-76
2021/12/01 03:59:05;;;;;;;0.50;0.50;;;;;;;-145.69;100.00;71782.47;5113278;28;20674;-76
2021/12/01 04:01:38;;;;;;;0.40;0.40;;;;;;;-145.69;100.00;71774.50;5113462;28;20209;-76
2021/12/01 04:04:05;;;;;;;0.47;0.40;;;;;;;-145.69;100.00;71774.50;5113197;28;20193;-77
2021/12/01 04:06:34;;;;;;;0.83;0.53;;;;;;;-145.69;100.00;71756.59;5113455;28;20224;-76
2021/12/01 04:09:04;;;;;;;0.30;0.30;;;;;;;-145.69;100.00;71770.53;5113348;28;20284;-77
2021/12/01 04:11:31;;;;;;;0.80;0.53;;;;;;;-145.69;100.00;71762.56;5113371;28;20197;-77
2021/12/01 04:13:57;;;;;;;0.57;0.50;;;;;;;-145.69;100.00;71742.69;5113366;28;20205;-76
2021/12/01 04:16:26;;;;;;;0.87;0.70;;;;;;;-145.69;100.00;71750.63;5113298;28;20567;-77
2021/12/01 04:18:58;;;;;;;0.40;0.40;;;;;;;-145.69;100.00;71752.63;5113007;28;20254;-77
2021/12/01 04:21:27;;;;;;;0.40;0.40;;;;;;;-145.69;100.00;71740.69;5112952;28;20278;-77
2021/12/01 04:23:56;;;;;;;0.40;0.40;;;;;;;-145.69;100.00;71736.72;5113280;28;20198;-77
2021/12/01 04:26:27;;;;;;;1.43;0.50;;;;;;;-145.69;100.00;71724.75;5116384;28;20211;-77
2021/12/01 04:28:57;;;;;;;0.40;0.40;;;;;;;-145.69;100.00;71722.78;5117116;28;20247;-76
2021/12/01 04:31:30;;;;;;;0.60;0.60;;;;;;;-145.69;100.00;71740.69;5116836;28;20830;-76
2021/12/01 04:34:05;;;;;;;0.70;0.50;;;;;;;-145.69;100.00;71728.75;5116757;28;20246;-76
2021/12/01 04:36:36;;;;;;;0.40;0.40;;;;;;;-145.69;100.00;71712.81;5116999;28;20200;-76
2021/12/01 04:39:07;;;;;;;0.40;0.40;;;;;;;-145.69;100.00;71704.88;5116438;28;20756;-76
2021/12/01 04:41:39;;;;;;;0.40;0.40;;;;;;;-145.69;100.00;71700.88;5116745;28;20215;-77
2021/12/01 04:44:09;;;;;;;0.67;0.67;;;;;;;-145.69;100.00;71714.81;5116811;28;20241;-76
2021/12/01 04:46:40;;;;;;;0.60;0.40;;;;;;;-145.69;100.00;71708.84;5116476;28;20638;-77
2021/12/01 04:49:08;;;;;;;0.83;0.57;;;;;;;-145.69;100.00;71708.84;5116762;28;20620;-76
2021/12/01 04:51:36;;;;;;;0.73;0.50;;;;;;;-145.69;100.00;71704.88;5116584;28;20200;-76
2021/12/01 04:54:03;;;;;;;0.60;0.40;;;;;;;-145.69;100.00;71696.91;5116383;28;20300;-77
2021/12/01 04:56:31;;;;;;;0.40;0.40;;;;;;;-145.69;100.00;71708.84;5116508;28;20362;-77
2021/12/01 04:59:00;;;;;;;0.47;0.40;;;;;;;-145.69;100.00;71692.94;5116354;28;20225;-75
2021/12/01 05:01:31;;;;;;;0.43;0.43;;;;;;;-145.69;100.00;71692.94;5116482;28;20201;-76
2021/12/01 05:03:57;;;;;;;0.63;0.30;;;;;;;-145.69;100.00;71688.94;5116384;28;20198;-76
2021/12/01 05:06:25;;;;;;;0.40;0.40;;;;;;;-145.69;100.00;71684.97;5116417;28;20197;-77
2021/12/01 05:08:54;;;;;;;0.67;0.43;;;;;;;-145.69;100.00;71688.94;5116222;28;20204;-76
2021/12/01 05:11:21;;;;;;;1.03;0.57;;;;;;;-145.69;100.00;71677.00;5116232;28;20197;-76
2021/12/01 05:13:47;;;;;;;1.43;0.83;;;;;;;-145.69;100.00;71680.97;5118714;27;20204;-76
2021/12/01 05:16:14;;;;;;;2.00;0.60;;;;;;;-145.69;100.00;71680.97;5115811;28;20198;-77
2021/12/01 05:18:40;;;;;;;0.60;0.60;;;;;;;-145.69;100.00;71680.97;5115987;28;20221;-76
2021/12/01 05:21:10;;;;;;;0.80;0.50;;;;;;;-145.69;100.00;71680.97;5115808;28;20229;-77
2021/12/01 05:23:38;;;;;;;0.70;0.40;;;;;;;-145.69;100.00;71669.03;5115781;28;20200;-77
2021/12/01 05:26:06;;;;;;;0.50;0.50;;;;;;;-145.69;100.00;71659.09;5116110;28;20204;-76
2021/12/01 05:28:35;;;;;;;3.17;0.70;;;;;;;-145.69;100.00;71669.03;5115861;28;20636;-76
2021/12/01 05:31:03;;;;;;;2.57;1.03;;;;;;;-145.69;100.00;71657.09;5116113;28;20231;-77
2021/12/01 05:33:30;;;;;;;2.37;1.40;;;;;;;-145.69;100.00;71661.09;5115884;28;20224;-75
2021/12/01 05:35:56;;;;;;;2.07;0.77;;;;;;;-145.69;100.00;71641.19;5116283;28;20644;-76
2021/12/01 05:38:23;;;;;;;0.80;0.77;;;;;;;-145.69;100.00;71639.19;5115040;28;20297;-76
2021/12/01 05:40:51;;;;;;;0.67;0.50;;;;;;;-145.69;100.00;71637.19;5115699;28;20205;-75
2021/12/01 05:43:18;;;;;;;0.73;0.53;;;;;;;-145.69;100.00;71639.19;5115695;28;20552;-77
2021/12/01 05:45:45;;;;;;;0.50;0.50;;;;;;;-145.69;100.00;71639.19;5115557;28;20205;-76
2021/12/01 05:48:12;;;;;;;0.70;0.70;;;;;;;-145.69;100.00;71633.22;5115329;28;20250;-77
2021/12/01 05:50:40;;;;;;;2.33;0.70;;;;;;;-145.69;100.00;71633.22;5115173;27;20207;-76
2021/12/01 05:53:09;;;;;;;5.03;1.30;;;;;;;-145.69;100.00;71633.22;5115407;28;20678;-77
2021/12/01 05:55:36;;;;;;;10.07;3.70;;;;;;;-145.69;100.00;71629.25;5115671;28;20254;-76
2021/12/01 05:58:07;;;;;;;1.10;0.90;;;;;;;-145.69;100.00;71607.34;5115270;28;20228;-76
2021/12/01 06:00:34;;;;;;;1.17;0.63;;;;;;;-145.69;100.00;71609.34;5115201;28;20198;-76
2021/12/01 06:03:00;;;;;;;1.00;0.57;;;;;;;-145.69;100.00;71609.34;5115145;28;20212;-76
2021/12/01 06:05:27;;;;;;;0.50;0.50;;;;;;;-145.69;99.97;71597.41;5115389;28;20193;-77
2021/12/01 06:07:54;;;;;;;2.50;1.40;;;;;;;-145.69;99.71;71591.44;5114916;28;20201;-76
2021/12/01 06:10:22;;;;;;;1.73;1.00;;;;;;;-145.69;99.99;71601.38;5114804;28;20205;-76
2021/12/01 06:12:48;;;;;;;5.57;0.63;;;;;;;-145.69;98.89;71597.41;5115078;28;20602;-76
2021/12/01 06:15:17;;;;;;;1.00;0.70;;;;;;;-145.69;98.42;71593.44;5114840;28;20647;-77
2021/12/01 06:17:47;;;;;;;0.98;0.80;;;;;;;-145.69;98.29;71581.50;5114373;28;20447;-77
2021/12/01 06:20:15;;;;;;;0.50;0.50;;;;;;;-145.69;98.74;71581.50;5114367;28;20711;-77
2021/12/01 06:22:42;;;;;;;3.50;0.60;;;;;;;-145.69;98.29;71585.47;5114805;28;20201;-76
2021/12/01 06:25:10;;;;;;;1.57;0.60;;;;;;;-145.69;99.11;71583.47;5115004;28;20243;-76
2021/12/01 06:27:37;;;;;;;0.60;0.57;;;;;;;-145.69;100.00;71621.28;5114729;28;20667;-76
2021/12/01 06:30:06;;;;;;;0.53;0.53;;;;;;;-145.69;99.44;71609.34;5114568;28;20197;-77
2021/12/01 06:32:33;;;;;;;0.50;0.50;;;;;;;-145.69;99.60;71603.38;5114609;28;20262;-77
2021/12/01 06:35:00;;;;;;;0.40;0.40;;;;;;;-145.69;99.61;71627.25;5114695;28;20702;-76
2021/12/01 06:37:27;;;;;;;0.53;0.40;;;;;;;-145.69;99.48;71609.34;5114139;28;20227;-76
2021/12/01 06:39:53;;;;;;;0.90;0.60;;;;;;;-145.69;100.00;71621.28;5114556;28;20235;-76
2021/12/01 06:42:21;;;;;;;1.10;0.60;;;;;;;-145.69;98.56;71607.34;5114337;28;20201;-76
2021/12/01 06:44:49;;;;;;;1.47;0.63;;;;;;;-145.69;98.30;71605.38;5114386;28;20197;-75
2021/12/01 06:47:17;;;;;;;1.43;0.70;;;;;;;-145.69;99.25;71599.41;5114158;28;20675;-76
2021/12/01 06:49:49;;;;;;;0.50;0.50;;;;;;;-145.69;98.71;71593.44;5113550;28;20201;-76
2021/12/01 06:52:16;;;;;;;1.83;0.70;;;;;;;-145.69;99.06;71605.38;5113862;28;20214;-76
2021/12/01 06:54:43;;;;;;;0.73;0.40;;;;;;;-145.69;100.00;71607.34;5114144;28;20204;-76
2021/12/01 06:57:11;;;;;;;0.60;0.60;;;;;;;-145.69;100.00;71605.38;5113987;28;20595;-75
2021/12/01 06:59:38;;;;;;;0.80;0.60;;;;;;;-145.69;98.59;71597.41;5113941;28;20709;-77
2021/12/01 07:02:07;;;;;;;0.40;0.40;;;;;;;-145.69;98.10;71593.44;5114103;28;20205;-76
2021/12/01 07:04:34;;;;;;;0.67;0.53;;;;;;;-145.69;98.17;71593.44;5114167;28;20208;-76
2021/12/01 07:07:01;;;;;;;0.87;0.50;;;;;;;-145.69;96.63;71569.53;5114154;28;20232;-76
2021/12/01 07:09:28;;;;;;;0.90;0.57;;;;;;;-145.69;98.83;71591.44;5113880;28;20201;-76
2021/12/01 07:11:54;;;;;;;1.27;0.60;;;;;;;-145.69;97.95;71593.44;5113658;28;20666;-76
2021/12/01 07:14:22;;;;;;;2.30;0.40;;;;;;;-145.69;98.40;71591.44;5113706;28;20667;-76
2021/12/01 07:16:49;;;;;;;0.70;0.60;;;;;;;-145.69;98.46;71583.47;5114285;28;20208;-76
2021/12/01 07:19:15;;;;;;;0.90;0.90;;;;;;;-145.69;98.90;71577.50;5116152;27;20312;-76
2021/12/01 07:21:42;;;;;;;0.50;0.50;;;;;;;-145.69;96.91;71545.66;5113644;28;20703;-76
2021/12/01 07:24:10;;;;;;;0.60;0.60;;;;;;;-145.69;97.39;71541.69;5113683;28;20201;-76
2021/12/01 07:26:36;;;;;;;1.17;0.50;;;;;;;-145.69;98.43;71541.69;5113783;28;20258;-76
2021/12/01 07:29:03;;;;;;;1.00;0.50;;;;;;;-145.69;97.97;71539.69;5113577;28;20206;-76
2021/12/01 07:31:33;;;;;;;1.63;0.70;;;;;;;-145.69;98.72;71531.75;5113726;28;20200;-76
2021/12/01 07:34:00;;;;;;;2.00;0.60;;;;;;;-145.69;98.15;71537.72;5113545;28;20201;-76
2021/12/01 07:36:27;;;;;;;0.40;0.40;;;;;;;-145.69;97.56;71533.72;5113432;28;20201;-76
2021/12/01 07:38:58;;;;;;;0.50;0.50;;;;;;;-145.69;98.31;71537.72;5113236;28;20225;-76
2021/12/01 07:41:27;;;;;;;1.77;0.60;;;;;;;-145.69;98.99;71527.75;5113731;28;20201;-76
2021/12/01 07:43:54;;;;;;;0.50;0.50;;;;;;;-145.69;99.32;71521.78;5113592;28;20197;-76
2021/12/01 07:46:20;;;;;;;1.23;0.87;;;;;;;-145.69;98.58;71503.88;5113470;28;20266;-76
2021/12/01 07:48:47;;;;;;;0.50;0.50;;;;;;;-145.69;98.90;71509.84;5113528;28;20212;-75
2021/12/01 07:51:15;;;;;;;2.60;1.23;;;;;;;-145.69;100.00;71509.84;5113311;28;20205;-76
2021/12/01 07:53:42;;;;;;;3.83;1.40;;;;;;;-145.69;98.14;71480.00;5113256;28;20197;-76
2021/12/01 07:56:08;;;;;;;2.03;0.63;;;;;;;-145.69;97.56;71464.09;5113387;28;20598;-76
2021/12/01 07:58:39;;;;;;;0.60;0.50;;;;;;;-145.69;96.68;71456.13;5113135;28;20699;-76
2021/12/01 08:01:06;;;;;;;0.57;0.50;;;;;;;-145.69;98.20;71468.06;5117219;28;20228;-76
2021/12/01 08:03:38;;;;;;;1.40;0.57;;;;;;;-145.69;98.21;71474.03;5117875;28;20205;-76
2021/12/01 08:06:05;;;;;;;0.83;0.40;;;;;;;-145.69;98.83;71456.13;5117753;28;20536;-76
2021/12/01 08:08:32;;;;;;;0.50;0.50;;;;;;;-145.69;98.29;71454.13;5117375;28;20250;-76
2021/12/01 08:10:58;;;;;;;0.50;0.50;;;;;;;-145.69;98.58;71450.16;5117442;28;20201;-76
2021/12/01 08:13:25;;;;;;;0.43;0.40;;;;;;;-145.69;98.09;71418.31;5117239;28;20202;-76
2021/12/01 08:15:53;;;;;;;0.40;0.40;;;;;;;-145.69;98.65;71420.31;5117331;28;20204;-76
2021/12/01 08:18:19;;;;;;;0.60;0.53;;;;;;;-145.69;99.89;71432.25;5117020;28;20231;-76
2021/12/01 08:20:46;;;;;;;0.73;0.50;;;;;;;-145.69;99.52;71426.28;5117179;28;20244;-77
2021/12/01 08:23:13;;;;;;;0.40;0.40;;;;;;;-145.69;98.74;71406.38;5117160;28;20208;-77
2021/12/01 08:25:42;;;;;;;0.50;0.50;;;;;;;-145.69;98.97;71402.41;5117236;28;20201;-76
2021/12/01 08:28:10;;;;;;;0.60;0.60;;;;;;;-145.69;99.22;71378.50;5117221;28;20194;-76
2021/12/01 08:30:36;;;;;;;0.73;0.60;;;;;;;-145.69;97.03;71356.63;5117048;28;20228;-76
2021/12/01 08:33:04;;;;;;;3.60;1.97;;;;;;;-145.69;98.33;71332.75;5116899;28;20209;-77
2021/12/01 08:35:33;;;;;;;2.20;1.83;;;;;;;-145.69;95.68;71306.88;5116949;28;20216;-76
2021/12/01 08:37:59;;;;;;;0.83;0.73;;;;;;;-145.69;95.08;71286.97;5116823;28;20197;-76
2021/12/01 08:40:29;;;;;;;0.80;0.60;;;;;;;-145.69;95.85;71283.00;5116765;28;20609;-76
2021/12/01 08:42:55;;;;;;;0.57;0.57;;;;;;;-145.69;95.87;71273.06;5116766;28;20208;-76
2021/12/01 08:45:22;;;;;;;0.37;0.37;;;;;;;-145.69;94.96;71271.06;5116691;28;20189;-77
2021/12/01 08:47:49;;;;;;;0.40;0.40;;;;;;;-145.69;95.49;71269.06;5116793;28;20197;-76
2021/12/01 08:50:17;;;;;;;0.70;0.60;;;;;;;-145.69;96.01;71275.03;5116630;28;20193;-77
2021/12/01 08:52:45;;;;;;;0.60;0.50;;;;;;;-145.69;96.19;71285.00;5116627;28;20625;-77
2021/12/01 08:55:15;;;;;;;0.93;0.50;;;;;;;-145.69;96.17;71279.03;5116535;28;20237;-76
2021/12/01 08:57:43;;;;;;;1.20;0.50;;;;;;;-145.69;96.04;71275.03;5116359;28;20205;-76
2021/12/01 09:00:12;;;;;;;0.70;0.47;;;;;;;-145.69;96.42;71237.25;5116118;28;20588;-76
2021/12/01 09:02:38;;;;;;;0.50;0.50;;;;;;;-145.69;96.02;71235.25;5116512;28;20204;-75
2021/12/01 09:05:06;;;;;;;0.83;0.30;;;;;;;-145.69;96.88;71203.41;5116366;28;20197;-76
2021/12/01 09:07:34;;;;;;;0.60;0.60;;;;;;;-145.69;95.20;71179.53;5116262;28;20198;-76
2021/12/01 09:10:00;;;;;;;0.53;0.50;;;;;;;-145.69;93.77;71167.59;5118313;27;20197;-76
2021/12/01 09:12:27;;;;;;;0.80;0.53;;;;;;;-145.69;95.67;71177.53;5115087;27;20247;-76
2021/12/01 09:14:56;;;;;;;0.57;0.50;;;;;;;-145.69;93.94;71181.53;5116174;28;20204;-75
2021/12/01 09:17:26;;;;;;;0.50;0.50;;;;;;;-145.69;94.07;71175.56;5115978;28;20652;-76
2021/12/01 09:19:58;;;;;;;0.63;0.50;;;;;;;-145.69;95.00;71197.44;5115744;28;20749;-77
2021/12/01 09:22:24;;;;;;;0.70;0.60;;;;;;;-145.69;95.95;71179.53;5115901;28;20197;-76
2021/12/01 09:24:52;;;;;;;0.50;0.50;;;;;;;-145.69;95.53;71171.56;5115925;28;20205;-76
2021/12/01 09:27:19;;;;;;;0.50;0.50;;;;;;;-145.69;96.84;71189.47;5115914;28;20201;-76
2021/12/01 09:29:45;;;;;;;3.30;0.90;;;;;;;-145.69;95.95;71191.47;5116093;28;20193;-76
2021/12/01 09:32:12;;;;;;;3.33;1.63;;;;;;;-145.69;95.32;71179.53;5115879;28;20205;-77
2021/12/01 09:34:40;;;;;;;1.87;0.83;;;;;;;-145.69;95.92;71177.53;5115715;28;20198;-76
2021/12/01 09:37:06;;;;;;;1.60;1.20;;;;;;;-145.69;94.73;71169.59;5115925;28;20260;-76
2021/12/01 09:39:33;;;;;;;2.87;1.40;;;;;;;-145.69;95.56;71171.56;5115493;28;20233;-76
2021/12/01 09:42:01;;;;;;;2.93;1.10;;;;;;;-145.69;96.31;71165.59;5115904;28;20205;-76
2021/12/01 09:44:28;;;;;;;1.93;1.10;;;;;;;-145.69;95.92;71167.59;5115729;28;20300;-77
2021/12/01 09:46:54;;;;;;;0.97;0.70;;;;;;;-145.69;95.34;71171.56;5115543;28;20226;-77
2021/12/01 09:49:21;;;;;;;0.50;0.40;;;;;;;-145.69;95.65;71139.75;5115797;28;20201;-77
2021/12/01 09:51:47;;;;;;;0.50;0.50;;;;;;;-145.69;95.44;71099.94;5115612;28;20201;-77
2021/12/01 09:54:14;;;;;;;0.40;0.40;;;;;;;-145.69;93.43;71078.06;5115560;28;20586;-77
2021/12/01 09:56:40;;;;;;;0.30;0.30;;;;;;;-145.69;93.69;71064.13;5117392;28;20202;-77
2021/12/01 09:59:08;;;;;;;1.57;0.50;;;;;;;-145.69;93.21;71068.13;5117438;28;20626;-77
2021/12/01 10:01:35;;;;;;;0.50;0.50;;;;;;;-145.69;92.52;71028.31;5115577;28;20208;-77
2021/12/01 10:04:01;;;;;;;0.73;0.40;;;;;;;-145.69;91.91;71044.22;5114933;27;20246;-76
2021/12/01 10:06:29;;;;;;;0.67;0.47;;;;;;;-145.69;92.54;71050.22;5115331;28;20200;-77
2021/12/01 10:08:57;;;;;;;0.60;0.60;;;;;;;-145.69;93.04;71036.28;5114963;28;20202;-77
2021/12/01 10:11:26;;;;;;;1.03;0.50;;;;;;;-145.69;92.06;71008.41;5115146;28;20259;-76
2021/12/01 10:13:57;;;;;;;0.40;0.40;;;;;;;-145.69;90.82;70972.59;5115158;28;20556;-76
2021/12/01 10:16:29;;;;;;;0.50;0.30;;;;;;;-145.69;90.26;70948.72;5114929;28;20651;-77
2021/12/01 10:18:56;;;;;;;0.40;0.40;;;;;;;-145.69;90.64;70932.81;5115110;28;20752;-77
2021/12/01 10:21:25;;;;;;;0.37;0.37;;;;;;;-145.69;89.75;70924.84;5114743;28;20229;-77
2021/12/01 10:23:53;;;;;;;0.30;0.30;;;;;;;-145.69;88.17;70895.00;5114701;28;20205;-78
2021/12/01 10:26:23;;;;;;;0.70;0.30;;;;;;;-145.69;90.36;70827.38;5113777;28;20790;-79
2021/12/01 10:28:53;;;;;;;0.60;0.47;;;;;;;-145.69;87.73;70835.31;5114990;28;20202;-80
2021/12/01 10:31:37;;;;;;;0.30;0.30;;;;;;;-145.69;85.45;70813.44;5114645;28;20201;-78
2021/12/01 10:34:15;;;;;;;1.17;0.47;;;;;;;-145.69;85.66;70775.63;5114527;28;20712;-77
2021/12/01 10:36:41;;;;;;;0.30;0.30;;;;;;;-145.69;84.10;70717.94;5114547;28;20649;-77
2021/12/01 10:39:08;;;;;;;0.33;0.33;;;;;;;-145.69;81.87;70696.06;5114739;28;20236;-77
2021/12/01 10:41:36;;;;;;;0.40;0.40;;;;;;;-145.69;82.00;70694.06;5114439;28;20205;-76
2021/12/01 10:44:09;;;;;;;0.40;0.40;;;;;;;-145.69;81.99;70684.13;5114253;28;20209;-78
2021/12/01 10:46:46;;;;;;;0.40;0.40;;;;;;;-145.69;80.81;70706.00;5123779;27;20185;-77
2021/12/01 10:49:12;;;;;;;0.20;0.20;;;;;;;-145.69;84.04;70727.88;5134609;27;20731;-77
2021/12/01 10:51:40;;;;;;;0.40;0.40;;;;;;;-145.69;84.51;70765.69;5134853;27;20276;-77
2021/12/01 10:54:15;;;;;;;0.67;0.30;;;;;;;-145.69;86.21;70795.53;5134648;27;20213;-77
2021/12/01 10:56:41;;;;;;;1.47;0.50;;;;;;;-145.69;87.09;70799.50;5134708;27;20200;-77
2021/12/01 10:59:12;;;;;;;0.47;0.47;;;;;;;-145.69;91.56;70847.25;5134444;27;20683;-77
2021/12/01 11:01:39;;;;;;;0.37;0.37;;;;;;;-145.69;92.18;70861.19;5134729;27;20208;-77
2021/12/01 11:04:08;;;;;;;0.40;0.40;;;;;;;-145.69;93.20;70859.19;5134693;27;20262;-77
2021/12/01 11:06:40;;;;;;;0.50;0.50;;;;;;;-145.69;93.67;70861.19;5127533;27;20190;-76
2021/12/01 11:09:07;;;;;;;0.50;0.50;;;;;;;-145.69;93.36;70857.22;5113731;28;20212;-77
2021/12/01 11:11:41;;;;;;;0.40;0.40;;;;;;;-145.69;93.67;70869.16;5114147;28;20193;-77
2021/12/01 11:14:10;;;;;;;1.03;0.60;;;;;;;-145.69;94.58;70857.22;5113767;28;20203;-78
2021/12/01 11:16:38;;;;;;;0.50;0.50;;;;;;;-145.69;95.93;70855.22;5113762;28;20206;-77
2021/12/01 11:19:04;;;;;;;0.50;0.50;;;;;;;-145.69;96.04;70879.09;5113884;28;20292;-77
2021/12/01 11:21:32;;;;;;;0.73;0.60;;;;;;;-145.69;98.00;70885.06;5113665;28;20233;-78
2021/12/01 11:24:01;;;;;;;0.67;0.53;;;;;;;-145.69;100.00;70897.00;5113847;28;20208;-78